createdAt,value
2023-01-19T00:00:55.266Z,96693.06
2023-01-19T00:03:22.036Z,96692.31
2023-01-19T00:05:48.892Z,96694.50
2023-01-19T00:08:16.771Z,96691.63
2023-01-19T00:10:46.258Z,96695.31
2023-01-19T00:13:13.787Z,96687.56
2023-01-19T00:15:42.757Z,96690.81
2023-01-19T00:18:11.712Z,96695.66
2023-01-19T00:20:40.233Z,96690.13
2023-01-19T00:23:10.213Z,96708.50
2023-01-19T00:25:44.293Z,96704.16
2023-01-19T00:28:12.814Z,96706.59
2023-01-19T00:30:40.168Z,96704.38
2023-01-19T00:33:07.040Z,96700.56
2023-01-19T00:35:34.994Z,96697.81
2023-01-19T00:38:02.031Z,96704.59
2023-01-19T00:40:28.808Z,96713.56
2023-01-19T00:42:55.708Z,96717.16
2023-01-19T00:45:24.480Z,96723.28
2023-01-19T00:47:57.186Z,96723.34
2023-01-19T00:50:25.313Z,96734.78
2023-01-19T00:52:53.917Z,96743.59
2023-01-19T00:55:21.103Z,96745.94
2023-01-19T00:57:48.131Z,96759.50
2023-01-19T01:00:17.542Z,96755.63
2023-01-19T01:02:44.986Z,96768.56
2023-01-19T01:05:14.049Z,96764.34
2023-01-19T01:07:41.972Z,96777.94
2023-01-19T01:10:13.729Z,96772.13
2023-01-19T01:12:41.339Z,96776.94
2023-01-19T01:15:23.425Z,96782.88
2023-01-19T01:17:53.111Z,96788.16
2023-01-19T01:20:27.097Z,96797.44
2023-01-19T01:22:54.810Z,96798.38
2023-01-19T01:25:23.693Z,96792.19
2023-01-19T01:27:51.224Z,96797.09
2023-01-19T01:30:19.192Z,96794.94
2023-01-19T01:32:45.947Z,96804.75
2023-01-19T01:35:13.915Z,96814.91
2023-01-19T01:37:43.427Z,96813.25
2023-01-19T01:40:15.128Z,96814.53
2023-01-19T01:42:43.229Z,96818.06
2023-01-19T01:45:41.273Z,96818.72
2023-01-19T01:48:14.706Z,96822.13
2023-01-19T01:51:24.783Z,96832.66
2023-01-19T01:54:16.810Z,96843.31
2023-01-19T01:56:48.410Z,96843.78
2023-01-19T01:59:26.036Z,96841.13
2023-01-19T02:02:20.533Z,96846.47
2023-01-19T02:04:54.306Z,96851.47
2023-01-19T02:07:48.953Z,96850.34
2023-01-19T02:10:36.919Z,96844.66
2023-01-19T02:13:20.085Z,96853.53
2023-01-19T02:15:52.833Z,96857.91
2023-01-19T02:18:21.026Z,96844.50
2023-01-19T02:21:00.355Z,96850.00
2023-01-19T02:23:44.583Z,96855.31
2023-01-19T02:26:17.064Z,96861.25
2023-01-19T02:28:50.392Z,96856.22
2023-01-19T02:31:18.293Z,96853.44
2023-01-19T02:33:45.364Z,96852.06
2023-01-19T02:36:15.535Z,96857.94
2023-01-19T02:38:44.746Z,96855.50
2023-01-19T02:41:17.117Z,96855.00
2023-01-19T02:43:45.294Z,96850.19
2023-01-19T02:46:13.994Z,96857.59
2023-01-19T02:48:40.916Z,96858.78
2023-01-19T02:51:17.593Z,96850.19
2023-01-19T02:53:49.997Z,96856.97
2023-01-19T02:56:41.897Z,96852.78
2023-01-19T02:59:38.921Z,96844.03
2023-01-19T03:02:36.938Z,96846.13
2023-01-19T03:05:26.042Z,96846.22
2023-01-19T03:08:13.379Z,96845.16
2023-01-19T03:11:02.724Z,96836.56
2023-01-19T03:13:47.328Z,96846.69
2023-01-19T03:16:22.886Z,96834.81
2023-01-19T03:19:00.038Z,96848.81
2023-01-19T03:21:29.937Z,96837.41
2023-01-19T03:24:02.049Z,96836.69
2023-01-19T03:26:34.754Z,96848.81
2023-01-19T03:29:03.245Z,96843.25
2023-01-19T03:31:33.501Z,96846.03
2023-01-19T03:34:05.926Z,96851.66
2023-01-19T03:36:37.638Z,96852.91
2023-01-19T03:39:07.922Z,96845.78
2023-01-19T03:41:36.768Z,96852.19
2023-01-19T03:44:08.117Z,96849.56
2023-01-19T03:46:35.080Z,96855.38
2023-01-19T03:49:02.096Z,96850.28
2023-01-19T03:51:29.111Z,96851.25
2023-01-19T03:53:55.942Z,96856.25
2023-01-19T03:56:24.227Z,96867.03
2023-01-19T03:58:51.825Z,96860.25
2023-01-19T04:01:23.264Z,96873.81
2023-01-19T04:03:53.127Z,96865.47
2023-01-19T04:06:20.782Z,96862.94
2023-01-19T04:08:49.291Z,96863.16
2023-01-19T04:11:16.410Z,96863.25
2023-01-19T04:13:43.565Z,96859.81
2023-01-19T04:16:11.420Z,96869.75
2023-01-19T04:18:38.582Z,96864.72
2023-01-19T04:21:06.789Z,96867.13
2023-01-19T04:23:33.894Z,96864.81
2023-01-19T04:26:03.182Z,96870.69
2023-01-19T04:28:30.227Z,96874.59
2023-01-19T04:30:57.683Z,96877.03
2023-01-19T04:33:27.440Z,96883.59
2023-01-19T04:35:54.798Z,96878.41
2023-01-19T04:38:26.127Z,96890.97
2023-01-19T04:40:54.234Z,96881.97
2023-01-19T04:43:22.621Z,96869.94
2023-01-19T04:45:50.618Z,96880.75
2023-01-19T04:48:19.056Z,96877.47
2023-01-19T04:50:49.670Z,96872.81
2023-01-19T04:53:18.516Z,96877.50
2023-01-19T04:55:45.232Z,96880.19
2023-01-19T04:58:12.648Z,96883.75
2023-01-19T05:00:39.388Z,96888.06
2023-01-19T05:03:06.534Z,96891.66
2023-01-19T05:05:35.280Z,96894.31
2023-01-19T05:08:02.058Z,96890.06
2023-01-19T05:10:28.898Z,96898.91
2023-01-19T05:12:56.137Z,96896.00
2023-01-19T05:15:23.493Z,96899.78
2023-01-19T05:17:51.361Z,96904.72
2023-01-19T05:20:19.356Z,96909.00
2023-01-19T05:22:53.829Z,96915.47
2023-01-19T05:25:20.690Z,96914.81
2023-01-19T05:27:47.495Z,96913.31
2023-01-19T05:30:15.592Z,96921.44
2023-01-19T05:32:42.340Z,96926.00
2023-01-19T05:35:09.751Z,96929.47
2023-01-19T05:37:40.399Z,96925.09
2023-01-19T05:40:08.496Z,96926.94
2023-01-19T05:42:36.137Z,96927.25
2023-01-19T05:45:03.399Z,96928.50
2023-01-19T05:47:31.919Z,96939.75
2023-01-19T05:49:59.225Z,96940.09
2023-01-19T05:52:26.348Z,96943.50
2023-01-19T05:54:55.170Z,96948.72
2023-01-19T05:57:22.796Z,96942.50
2023-01-19T05:59:53.151Z,96955.38
2023-01-19T06:02:20.319Z,96952.47
2023-01-19T06:04:47.010Z,96956.59
2023-01-19T06:07:15.937Z,96956.03
2023-01-19T06:09:42.850Z,96963.88
2023-01-19T06:12:09.612Z,96961.81
2023-01-19T06:14:40.972Z,96969.06
2023-01-19T06:17:08.720Z,96966.72
2023-01-19T06:19:35.495Z,96966.94
2023-01-19T06:22:02.882Z,96969.47
2023-01-19T06:24:33.081Z,96964.94
2023-01-19T06:27:02.980Z,96966.41
2023-01-19T06:29:30.191Z,96981.09
2023-01-19T06:31:58.291Z,96982.88
2023-01-19T06:34:28.898Z,96977.56
2023-01-19T06:36:56.531Z,96981.41
2023-01-19T06:39:24.215Z,96984.13
2023-01-19T06:41:51.848Z,96986.50
2023-01-19T06:44:18.686Z,96988.94
2023-01-19T06:46:46.001Z,96987.53
2023-01-19T06:49:13.283Z,96993.25
2023-01-19T06:51:40.300Z,96996.78
2023-01-19T06:54:08.395Z,96992.84
2023-01-19T06:56:38.542Z,96993.03
2023-01-19T06:59:06.593Z,96995.06
2023-01-19T07:01:34.596Z,97007.75
2023-01-19T07:04:04.459Z,97000.94
2023-01-19T07:06:31.595Z,97004.06
2023-01-19T07:09:00.566Z,97006.50
2023-01-19T07:11:32.782Z,96998.38
2023-01-19T07:14:00.143Z,96998.91
2023-01-19T07:16:28.571Z,97015.81
2023-01-19T07:18:56.132Z,97015.50
2023-01-19T07:21:28.258Z,97014.84
2023-01-19T07:23:56.382Z,97023.06
2023-01-19T07:26:25.173Z,97027.19
2023-01-19T07:28:58.290Z,97033.53
2023-01-19T07:31:25.465Z,97028.09
2023-01-19T07:33:53.061Z,97039.72
2023-01-19T07:36:20.099Z,97049.75
2023-01-19T07:38:47.908Z,97062.50
2023-01-19T07:41:17.695Z,97061.13
2023-01-19T07:43:45.658Z,97065.78
2023-01-19T07:46:16.809Z,97063.66
2023-01-19T07:48:48.474Z,97058.09
2023-01-19T07:51:29.463Z,97053.75
2023-01-19T07:53:57.423Z,97052.25
2023-01-19T07:56:27.409Z,97069.31
2023-01-19T07:58:57.178Z,97060.69
2023-01-19T08:01:24.598Z,97066.44
2023-01-19T08:03:55.347Z,97071.25
2023-01-19T08:06:27.499Z,97062.81
2023-01-19T08:08:57.379Z,97070.00
2023-01-19T08:11:25.000Z,97064.31
2023-01-19T08:13:52.153Z,97061.56
2023-01-19T08:16:19.395Z,97067.53
2023-01-19T08:18:51.666Z,97065.31
2023-01-19T08:21:18.843Z,97078.84
2023-01-19T08:23:52.202Z,97071.97
2023-01-19T08:26:29.291Z,97069.31
2023-01-19T08:28:58.997Z,97072.22
2023-01-19T08:31:26.634Z,97072.97
2023-01-19T08:33:53.916Z,97084.09
2023-01-19T08:36:22.640Z,97079.03
2023-01-19T08:38:49.837Z,97076.06
2023-01-19T08:41:17.184Z,97083.31
2023-01-19T08:43:45.495Z,97090.59
2023-01-19T08:46:16.900Z,97093.03
2023-01-19T08:48:45.305Z,97090.34
2023-01-19T08:51:12.779Z,97087.81
2023-01-19T08:53:39.665Z,97092.91
2023-01-19T08:56:12.099Z,97091.78
2023-01-19T08:58:40.687Z,97103.34
2023-01-19T09:01:08.721Z,97095.81
2023-01-19T09:03:36.516Z,97103.94
2023-01-19T09:06:11.241Z,97090.63
2023-01-19T09:08:38.498Z,97100.47
2023-01-19T09:11:07.731Z,97096.47
2023-01-19T09:13:34.709Z,97102.84
2023-01-19T09:16:03.846Z,97101.22
2023-01-19T09:18:30.746Z,97099.00
2023-01-19T09:20:57.985Z,97100.03
2023-01-19T09:23:25.639Z,97094.03
2023-01-19T09:25:57.841Z,97099.00
2023-01-19T09:28:24.711Z,97103.94
2023-01-19T09:30:51.856Z,97092.56
2023-01-19T09:33:19.798Z,97101.16
2023-01-19T09:35:48.628Z,97093.00
2023-01-19T09:38:16.885Z,97092.47
2023-01-19T09:40:52.024Z,97101.25
2023-01-19T09:43:37.829Z,97096.56
2023-01-19T09:46:15.590Z,97089.09
2023-01-19T09:48:52.421Z,97088.72
2023-01-19T09:51:23.212Z,97083.47
2023-01-19T09:54:14.966Z,97084.38
2023-01-19T09:56:43.342Z,97089.91
2023-01-19T09:59:25.219Z,97095.72
2023-01-19T10:02:17.018Z,97101.59
2023-01-19T10:05:02.860Z,97104.38
2023-01-19T10:07:33.025Z,97113.63
2023-01-19T10:10:05.788Z,97117.28
2023-01-19T10:12:43.535Z,97117.66
2023-01-19T10:15:31.055Z,97108.53
2023-01-19T10:18:16.414Z,97115.50
2023-01-19T10:20:52.142Z,97110.59
2023-01-19T10:23:43.792Z,97112.13
2023-01-19T10:26:27.100Z,97113.75
2023-01-19T10:29:08.077Z,97121.75
2023-01-19T10:31:39.200Z,97119.28
2023-01-19T10:34:06.101Z,97122.63
2023-01-19T10:36:38.357Z,97126.25
2023-01-19T10:39:12.972Z,97126.56
2023-01-19T10:41:49.161Z,97129.72
2023-01-19T10:44:34.124Z,97117.56
2023-01-19T10:47:02.228Z,97125.00
2023-01-19T10:49:35.513Z,97118.13
2023-01-19T10:52:03.222Z,97125.47
2023-01-19T10:54:32.704Z,97128.38
2023-01-19T10:57:03.634Z,97112.97
2023-01-19T10:59:46.547Z,97112.03
2023-01-19T11:02:26.768Z,97119.91
2023-01-19T11:05:15.261Z,97124.44
2023-01-19T11:07:42.546Z,97122.59
2023-01-19T11:10:21.319Z,97111.38
2023-01-19T11:12:55.772Z,97118.28
2023-01-19T11:15:22.825Z,97125.75
2023-01-19T11:17:52.822Z,97119.00
2023-01-19T11:20:46.014Z,97113.03
2023-01-19T11:23:25.810Z,97108.53
2023-01-19T11:25:55.019Z,97112.00
2023-01-19T11:28:28.346Z,97103.31
2023-01-19T11:31:11.967Z,97105.31
2023-01-19T11:33:49.765Z,97103.44
2023-01-19T11:36:29.183Z,97102.50
2023-01-19T11:39:24.337Z,97109.22
2023-01-19T11:42:01.691Z,97099.59
2023-01-19T11:44:32.947Z,97108.78
2023-01-19T11:47:02.972Z,97109.69
2023-01-19T11:50:23.995Z,97105.63
2023-01-19T11:53:06.260Z,97102.69
2023-01-19T11:55:51.651Z,97098.28
2023-01-19T11:58:19.797Z,97099.97
2023-01-19T12:01:02.285Z,97096.13
2023-01-19T12:03:39.002Z,97093.69
2023-01-19T12:06:20.542Z,97090.94
2023-01-19T12:08:56.002Z,97094.50
2023-01-19T12:11:37.749Z,97092.03
2023-01-19T12:14:07.861Z,97094.63
2023-01-19T12:16:38.000Z,97091.47
2023-01-19T12:19:16.859Z,97088.53
2023-01-19T12:21:48.210Z,97082.56
2023-01-19T12:24:17.756Z,97079.53
2023-01-19T12:26:56.111Z,97078.59
2023-01-19T12:29:27.346Z,97075.75
2023-01-19T12:32:18.821Z,97080.63
2023-01-19T12:34:50.219Z,97060.03
2023-01-19T12:37:38.102Z,97073.34
2023-01-19T12:40:29.307Z,97071.19
2023-01-19T12:43:05.570Z,97068.53
2023-01-19T12:45:35.603Z,97069.03
2023-01-19T12:48:05.486Z,97065.16
2023-01-19T12:50:40.433Z,97060.53
2023-01-19T12:53:20.567Z,97066.53
2023-01-19T12:56:00.206Z,97069.66
2023-01-19T12:58:27.725Z,97071.34
2023-01-19T13:01:21.583Z,97065.25
2023-01-19T13:04:27.392Z,97068.41
2023-01-19T13:06:55.643Z,97072.81
2023-01-19T13:09:30.195Z,97075.72
2023-01-19T13:12:18.455Z,97080.19
2023-01-19T13:14:46.667Z,97075.38
2023-01-19T13:17:28.356Z,97086.88
2023-01-19T13:20:03.604Z,97093.06
2023-01-19T13:23:08.076Z,97087.41
2023-01-19T13:25:36.376Z,97085.53
2023-01-19T13:28:10.675Z,97084.91
2023-01-19T13:30:46.675Z,97090.34
2023-01-19T13:33:29.463Z,97093.38
2023-01-19T13:35:59.509Z,97092.25
2023-01-19T13:38:28.836Z,97084.06
2023-01-19T13:41:00.417Z,97092.72
2023-01-19T13:43:35.386Z,97088.72
2023-01-19T13:46:06.468Z,97094.69
2023-01-19T13:48:34.131Z,97094.47
2023-01-19T13:51:10.313Z,97094.44
2023-01-19T13:53:37.417Z,97081.13
2023-01-19T13:56:10.099Z,97095.34
2023-01-19T13:58:37.447Z,97092.47
2023-01-19T14:01:06.716Z,97099.66
2023-01-19T14:03:33.834Z,97100.06
2023-01-19T14:06:01.093Z,97106.91
2023-01-19T14:08:28.070Z,97106.28
2023-01-19T14:10:56.782Z,97100.56
2023-01-19T14:13:25.323Z,97106.06
2023-01-19T14:15:57.879Z,97105.16
2023-01-19T14:18:31.821Z,97106.84
2023-01-19T14:21:04.597Z,97107.47
2023-01-19T14:23:37.873Z,97109.00
2023-01-19T14:26:05.723Z,97100.94
2023-01-19T14:28:35.775Z,97104.94
2023-01-19T14:31:27.131Z,97109.44
2023-01-19T14:33:56.311Z,97107.59
2023-01-19T14:36:44.438Z,97111.75
2023-01-19T14:39:24.819Z,97114.66
2023-01-19T14:41:53.775Z,97116.38
2023-01-19T14:44:33.157Z,97111.69
2023-01-19T14:47:03.175Z,97113.63
2023-01-19T14:49:39.140Z,97116.00
2023-01-19T14:52:23.309Z,97111.66
2023-01-19T14:54:53.017Z,97113.09
2023-01-19T14:57:20.965Z,97117.22
2023-01-19T14:59:50.533Z,97110.88
2023-01-19T15:02:21.074Z,97109.06
2023-01-19T15:04:48.459Z,97119.66
2023-01-19T15:07:19.684Z,97116.84
2023-01-19T15:09:48.307Z,97120.63
2023-01-19T15:12:18.112Z,97119.81
2023-01-19T15:14:47.226Z,97124.22
2023-01-19T15:17:18.768Z,97116.25
2023-01-19T15:19:46.477Z,97130.59
2023-01-19T15:22:13.922Z,97132.56
2023-01-19T15:24:41.494Z,97133.50
2023-01-19T15:27:13.197Z,97129.03
2023-01-19T15:29:43.047Z,97125.47
2023-01-19T15:32:16.941Z,97138.00
2023-01-19T15:34:44.691Z,97135.28
2023-01-19T15:37:12.507Z,97139.47
2023-01-19T15:39:40.034Z,97141.13
2023-01-19T15:42:13.196Z,97135.47
2023-01-19T15:44:40.360Z,97147.88
2023-01-19T15:47:07.420Z,97145.66
2023-01-19T15:49:35.148Z,97149.19
2023-01-19T15:52:01.976Z,97145.16
2023-01-19T15:54:28.955Z,97142.88
2023-01-19T15:56:55.853Z,97140.66
2023-01-19T15:59:24.142Z,97152.66
2023-01-19T16:01:51.099Z,97154.53
2023-01-19T16:04:18.218Z,97158.63
2023-01-19T16:06:45.122Z,97152.84
2023-01-19T16:09:16.813Z,97159.16
2023-01-19T16:11:47.792Z,97163.81
2023-01-19T16:14:16.612Z,97166.81
2023-01-19T16:16:46.158Z,97161.34
2023-01-19T16:19:15.791Z,97165.28
2023-01-19T16:21:44.004Z,97177.63
2023-01-19T16:24:10.709Z,97175.94
2023-01-19T16:26:37.808Z,97183.22
2023-01-19T16:29:09.909Z,97189.53
2023-01-19T16:31:38.915Z,97193.88
2023-01-19T16:34:06.129Z,97192.38
2023-01-19T16:36:34.921Z,97203.19
2023-01-19T16:39:05.644Z,97205.13
2023-01-19T16:41:36.783Z,97211.00
2023-01-19T16:44:04.041Z,97206.69
2023-01-19T16:46:35.265Z,97213.72
2023-01-19T16:49:07.218Z,97208.28
2023-01-19T16:51:34.099Z,97219.94
2023-01-19T16:54:00.913Z,97226.59
2023-01-19T16:56:28.128Z,97213.84
2023-01-19T16:58:57.136Z,97216.28
2023-01-19T17:01:25.636Z,97223.38
2023-01-19T17:03:52.697Z,97232.84
2023-01-19T17:06:24.503Z,97224.53
2023-01-19T17:08:55.043Z,97241.84
2023-01-19T17:11:25.154Z,97239.88
2023-01-19T17:13:58.074Z,97234.25
2023-01-19T17:16:25.461Z,97239.09
2023-01-19T17:18:52.848Z,97234.72
2023-01-19T17:21:20.508Z,97233.25
2023-01-19T17:23:49.603Z,97228.81
2023-01-19T17:30:35.465Z,97233.22
2023-01-19T17:33:49.114Z,97229.81
2023-01-19T17:36:22.416Z,97234.53
2023-01-19T17:38:50.776Z,97227.44
2023-01-19T17:41:22.352Z,97223.34
2023-01-19T17:43:53.342Z,97237.16
2023-01-19T17:46:23.427Z,97238.56
2023-01-19T17:48:55.785Z,97248.06
2023-01-19T17:51:23.444Z,97241.28
2023-01-19T17:53:51.179Z,97249.34
2023-01-19T17:56:23.606Z,97248.47
2023-01-19T17:58:50.347Z,97247.41
2023-01-19T18:01:22.279Z,97252.06
2023-01-19T18:03:49.175Z,97256.78
2023-01-19T18:06:16.722Z,97243.31
2023-01-19T18:08:46.353Z,97263.38
2023-01-19T18:11:14.635Z,97272.88
2023-01-19T18:13:44.204Z,97266.44
2023-01-19T18:16:15.360Z,97275.41
2023-01-19T18:18:44.290Z,97273.28
2023-01-19T18:21:13.444Z,97273.19
2023-01-19T18:23:40.725Z,97269.16
2023-01-19T18:26:10.402Z,97275.50
2023-01-19T18:28:37.748Z,97273.66
2023-01-19T18:31:08.803Z,97265.91
2023-01-19T18:33:36.491Z,97272.28
2023-01-19T18:36:04.040Z,97266.94
2023-01-19T18:38:31.668Z,97271.06
2023-01-19T18:41:09.048Z,97270.97
2023-01-19T18:43:36.627Z,97268.16
2023-01-19T18:46:03.807Z,97281.25
2023-01-19T18:48:30.873Z,97272.28
2023-01-19T18:50:57.580Z,97270.31
2023-01-19T18:53:25.835Z,97277.47
2023-01-19T18:55:55.740Z,97269.91
2023-01-19T18:58:23.242Z,97270.31
2023-01-19T19:00:51.078Z,97272.50
2023-01-19T19:03:17.817Z,97275.78
2023-01-19T19:05:44.716Z,97285.72
2023-01-19T19:08:11.650Z,97282.44
2023-01-19T19:10:42.741Z,97279.31
2023-01-19T19:13:12.841Z,97274.25
2023-01-19T19:17:02.295Z,97266.66
2023-01-19T19:19:29.506Z,97266.41
2023-01-19T19:21:57.305Z,97279.75
2023-01-19T19:24:24.424Z,97277.03
2023-01-19T19:26:50.986Z,97277.69
2023-01-19T19:29:18.517Z,97271.84
2023-01-19T19:31:46.464Z,97281.00
2023-01-19T19:34:14.410Z,97270.25
2023-01-19T19:36:42.289Z,97273.81
2023-01-19T19:39:09.241Z,97265.56
2023-01-19T19:41:39.115Z,97264.13
2023-01-19T19:44:05.929Z,97267.31
2023-01-19T19:46:34.655Z,97262.09
2023-01-19T19:49:01.717Z,97267.03
2023-01-19T19:51:28.834Z,97269.75
2023-01-19T19:54:00.148Z,97272.22
2023-01-19T19:56:29.672Z,97271.16
2023-01-19T19:58:59.076Z,97276.94
2023-01-19T20:01:33.679Z,97263.38
2023-01-19T20:04:12.795Z,97281.78
2023-01-19T20:06:49.903Z,97281.00
2023-01-19T20:09:17.636Z,97285.00
2023-01-19T20:11:49.363Z,97279.72
2023-01-19T20:14:17.584Z,97284.69
2023-01-19T20:16:44.658Z,97278.63
2023-01-19T20:19:11.431Z,97282.78
2023-01-19T20:21:42.374Z,97282.22
2023-01-19T20:24:14.649Z,97288.75
2023-01-19T20:26:53.028Z,97283.44
2023-01-19T20:29:27.993Z,97284.25
2023-01-19T20:32:04.107Z,97284.78
2023-01-19T20:34:33.631Z,97282.22
2023-01-19T20:37:01.932Z,97288.97
2023-01-19T20:39:33.158Z,97280.94
2023-01-19T20:42:01.899Z,97286.19
2023-01-19T20:44:29.186Z,97287.94
2023-01-19T20:47:00.017Z,97291.00
2023-01-19T20:49:27.654Z,97290.97
2023-01-19T20:51:55.254Z,97292.09
2023-01-19T20:54:26.314Z,97290.81
2023-01-19T20:56:53.684Z,97286.72
2023-01-19T20:59:20.564Z,97289.41
2023-01-19T21:01:48.946Z,97299.91
2023-01-19T21:04:17.648Z,97299.97
2023-01-19T21:06:45.438Z,97303.59
2023-01-19T21:09:13.668Z,97308.16
2023-01-19T21:11:40.888Z,97300.06
2023-01-19T21:14:09.001Z,97306.22
2023-01-19T21:16:37.873Z,97304.66
2023-01-19T21:19:05.833Z,97296.91
2023-01-19T21:21:32.653Z,97304.00
2023-01-19T21:24:03.502Z,97298.94
2023-01-19T21:26:31.553Z,97295.94
2023-01-19T21:28:59.729Z,97303.28
2023-01-19T21:31:28.279Z,97304.34
2023-01-19T21:33:56.382Z,97305.22
2023-01-19T21:36:24.721Z,97301.38
2023-01-19T21:38:52.407Z,97298.66
2023-01-19T21:41:19.462Z,97300.53
2023-01-19T21:43:46.435Z,97296.03
2023-01-19T21:46:34.100Z,97294.47
2023-01-19T21:49:04.209Z,97298.56
2023-01-19T21:51:35.044Z,97302.47
2023-01-19T21:54:04.684Z,97294.09
2023-01-19T21:56:31.871Z,97299.13
2023-01-19T21:59:02.334Z,97307.41
2023-01-19T22:01:29.554Z,97310.59
2023-01-19T22:03:57.663Z,97314.41
2023-01-19T22:06:26.151Z,97310.38
2023-01-19T22:08:58.598Z,97310.22
2023-01-19T22:11:25.582Z,97303.78
2023-01-19T22:13:52.351Z,97307.63
2023-01-19T22:16:21.466Z,97313.00
2023-01-19T22:18:59.333Z,97309.63
2023-01-19T22:21:35.069Z,97300.59
2023-01-19T22:24:04.153Z,97300.88
2023-01-19T22:26:32.215Z,97297.94
2023-01-19T22:29:01.008Z,97304.25
2023-01-19T22:31:29.390Z,97308.88
2023-01-19T22:33:57.100Z,97309.47
2023-01-19T22:36:26.793Z,97310.41
2023-01-19T22:39:02.368Z,97312.66
2023-01-19T22:41:38.270Z,97312.38
2023-01-19T22:44:07.440Z,97308.28
2023-01-19T22:46:36.501Z,97313.84
2023-01-19T22:49:05.179Z,97302.38
2023-01-19T22:51:32.493Z,97309.06
2023-01-19T22:54:00.837Z,97320.72
2023-01-19T22:56:31.833Z,97314.47
2023-01-19T22:59:06.094Z,97314.63
2023-01-19T23:01:36.788Z,97306.47
2023-01-19T23:04:05.610Z,97312.28
2023-01-19T23:06:35.712Z,97312.13
2023-01-19T23:09:09.951Z,97309.94
2023-01-19T23:11:40.664Z,97306.56
2023-01-19T23:14:10.225Z,97313.66
2023-01-19T23:16:37.482Z,97313.94
2023-01-19T23:19:04.617Z,97314.72
2023-01-19T23:21:32.508Z,97310.66
2023-01-19T23:24:01.666Z,97318.38
2023-01-19T23:26:31.702Z,97324.09
2023-01-19T23:29:01.071Z,97319.88
2023-01-19T23:31:31.002Z,97318.63
2023-01-19T23:34:01.470Z,97322.66
2023-01-19T23:36:30.264Z,97318.72
2023-01-19T23:38:58.907Z,97319.06
2023-01-19T23:41:27.996Z,97323.47
2023-01-19T23:43:54.950Z,97333.00
2023-01-19T23:46:22.115Z,97319.81
2023-01-19T23:48:49.454Z,97315.91
2023-01-19T23:51:22.297Z,97326.03
2023-01-19T23:53:49.798Z,97318.63
2023-01-19T23:56:18.363Z,97318.44
2023-01-19T23:59:01.874Z,97319.00
